createdAt,value
2018-12-31T00:02:02.950Z,89.07
2018-12-31T00:04:32.487Z,87.37
2018-12-31T00:07:01.864Z,88.97
2018-12-31T00:09:31.184Z,81.00
2018-12-31T00:12:00.606Z,55.87
2018-12-31T00:14:30.240Z,74.17
2018-12-31T00:16:59.588Z,69.23
2018-12-31T00:19:28.947Z,65.70
2018-12-31T00:21:58.247Z,62.73
2018-12-31T00:24:27.585Z,62.87
2018-12-31T00:26:56.948Z,59.70
2018-12-31T00:29:26.305Z,52.03
2018-12-31T00:31:55.696Z,59.17
2018-12-31T00:34:25.031Z,63.20
2018-12-31T00:36:54.374Z,58.47
2018-12-31T00:39:23.679Z,51.97
2018-12-31T00:41:52.965Z,49.60
2018-12-31T00:44:22.295Z,44.47
2018-12-31T00:46:51.581Z,43.23
2018-12-31T00:49:20.915Z,34.57
2018-12-31T00:51:50.249Z,28.27
2018-12-31T00:54:19.798Z,27.60
2018-12-31T00:56:49.125Z,26.33
2018-12-31T00:59:18.425Z,26.33
2018-12-31T01:01:47.883Z,27.77
2018-12-31T01:04:17.213Z,29.50
2018-12-31T01:06:46.504Z,29.90
2018-12-31T01:09:15.804Z,29.20
2018-12-31T01:11:45.105Z,29.53
2018-12-31T01:14:14.459Z,28.03
2018-12-31T01:16:43.815Z,28.53
2018-12-31T01:19:13.198Z,27.90
2018-12-31T01:21:42.532Z,26.53
2018-12-31T01:24:11.946Z,27.17
2018-12-31T01:26:41.250Z,25.60
2018-12-31T01:29:10.601Z,23.23
2018-12-31T01:31:39.928Z,23.40
2018-12-31T01:34:09.249Z,22.83
2018-12-31T01:36:38.592Z,25.83
2018-12-31T01:39:07.920Z,23.73
2018-12-31T01:41:37.260Z,25.20
2018-12-31T01:44:06.591Z,27.07
2018-12-31T01:46:35.944Z,24.70
2018-12-31T01:49:05.233Z,23.10
2018-12-31T01:51:34.560Z,22.30
2018-12-31T01:54:03.906Z,21.83
2018-12-31T01:56:33.221Z,20.87
2018-12-31T01:59:02.655Z,21.20
2018-12-31T02:01:31.971Z,19.03
2018-12-31T02:04:01.284Z,18.27
2018-12-31T02:06:30.621Z,17.43
2018-12-31T02:09:00.020Z,16.23
2018-12-31T02:11:29.366Z,17.23
2018-12-31T02:13:58.785Z,15.97
2018-12-31T02:16:28.117Z,15.83
2018-12-31T02:18:57.446Z,16.13
2018-12-31T02:21:26.813Z,15.40
2018-12-31T02:23:56.155Z,16.90
2018-12-31T02:26:25.463Z,20.53
2018-12-31T02:28:54.802Z,26.93
2018-12-31T02:31:24.257Z,26.73
2018-12-31T02:33:53.655Z,26.23
2018-12-31T02:36:22.996Z,25.20
2018-12-31T02:38:52.288Z,25.23
2018-12-31T02:41:21.649Z,26.57
2018-12-31T02:43:51.017Z,26.00
2018-12-31T02:46:20.454Z,25.73
2018-12-31T02:48:49.781Z,24.93
2018-12-31T02:51:19.094Z,27.53
2018-12-31T02:53:48.440Z,27.17
2018-12-31T02:56:17.747Z,28.33
2018-12-31T02:58:47.078Z,27.60
2018-12-31T03:01:16.431Z,26.03
2018-12-31T03:03:45.744Z,20.90
2018-12-31T03:06:15.186Z,19.13
2018-12-31T03:08:44.486Z,18.97
2018-12-31T03:11:13.831Z,18.53
2018-12-31T03:13:43.175Z,18.77
2018-12-31T03:16:12.505Z,18.43
2018-12-31T03:18:41.979Z,17.33
2018-12-31T03:21:11.313Z,18.40
2018-12-31T03:23:40.663Z,18.77
2018-12-31T03:26:10.094Z,18.40
2018-12-31T03:28:39.419Z,18.77
2018-12-31T03:31:08.753Z,19.57
2018-12-31T03:33:38.067Z,19.60
2018-12-31T03:36:07.452Z,19.53
2018-12-31T03:38:36.711Z,17.87
2018-12-31T03:41:06.098Z,18.83
2018-12-31T03:43:35.415Z,19.57
2018-12-31T03:46:04.827Z,18.23
2018-12-31T03:48:34.235Z,19.13
2018-12-31T03:51:03.588Z,17.27
2018-12-31T03:53:32.874Z,16.10
2018-12-31T03:56:02.182Z,14.63
2018-12-31T03:58:31.470Z,14.47
2018-12-31T04:01:00.857Z,13.50
2018-12-31T04:03:30.216Z,13.97
2018-12-31T04:05:59.706Z,13.67
2018-12-31T04:08:29.092Z,13.40
2018-12-31T04:10:58.412Z,13.90
2018-12-31T04:13:27.771Z,12.40
2018-12-31T04:15:57.122Z,12.53
2018-12-31T04:18:26.511Z,12.90
2018-12-31T04:20:55.946Z,12.97
2018-12-31T04:23:25.509Z,12.60
2018-12-31T04:25:54.824Z,12.13
2018-12-31T04:28:24.172Z,12.03
2018-12-31T04:30:53.543Z,12.30
2018-12-31T04:33:22.942Z,11.87
2018-12-31T04:35:52.500Z,12.47
2018-12-31T04:38:21.883Z,12.90
2018-12-31T04:40:51.308Z,12.50
2018-12-31T04:43:20.646Z,12.73
2018-12-31T04:45:50.116Z,11.67
2018-12-31T04:48:19.413Z,12.53
2018-12-31T04:50:48.776Z,13.40
2018-12-31T04:53:18.135Z,13.13
2018-12-31T04:55:47.586Z,12.73
2018-12-31T04:58:23.044Z,12.17
2018-12-31T05:00:47.996Z,13.23
2018-12-31T05:03:17.413Z,14.47
2018-12-31T05:05:46.736Z,14.30
2018-12-31T05:08:16.171Z,15.07
2018-12-31T05:10:45.584Z,14.50
2018-12-31T05:13:15.123Z,14.07
2018-12-31T05:15:44.808Z,14.30
2018-12-31T05:18:14.340Z,14.33
2018-12-31T05:20:43.831Z,14.97
2018-12-31T05:23:13.196Z,14.90
2018-12-31T05:25:42.663Z,15.30
2018-12-31T05:28:12.107Z,14.47
2018-12-31T05:30:41.491Z,15.50
2018-12-31T05:33:10.924Z,14.60
2018-12-31T05:35:40.402Z,15.33
2018-12-31T05:38:09.822Z,16.63
2018-12-31T05:40:39.236Z,16.40
2018-12-31T05:43:08.650Z,16.07
2018-12-31T05:45:38.002Z,16.50
2018-12-31T05:48:07.499Z,16.03
2018-12-31T05:50:37.246Z,16.63
2018-12-31T05:53:06.717Z,19.93
2018-12-31T05:55:36.152Z,20.17
2018-12-31T05:58:05.653Z,22.83
2018-12-31T06:00:36.298Z,22.47
2018-12-31T06:03:05.811Z,21.80
2018-12-31T06:05:35.377Z,19.40
2018-12-31T06:08:04.943Z,18.60
2018-12-31T06:10:34.415Z,21.27
2018-12-31T06:13:03.856Z,23.10
2018-12-31T06:15:34.208Z,22.73
2018-12-31T06:18:04.091Z,20.87
2018-12-31T06:20:35.890Z,24.63
2018-12-31T06:23:07.880Z,22.27
2018-12-31T06:25:37.764Z,28.00
2018-12-31T06:28:08.414Z,30.93
2018-12-31T06:30:39.060Z,34.37
2018-12-31T06:33:09.073Z,31.23
2018-12-31T06:35:38.696Z,36.07
2018-12-31T06:38:08.180Z,47.60
2018-12-31T06:40:37.617Z,46.53
2018-12-31T06:43:07.094Z,56.27
2018-12-31T06:45:36.733Z,74.57
2018-12-31T06:48:06.103Z,73.40
2018-12-31T06:50:35.738Z,65.13
2018-12-31T06:53:05.110Z,53.63
2018-12-31T06:55:34.870Z,46.57
2018-12-31T06:58:04.256Z,41.37
2018-12-31T07:00:34.063Z,39.63
2018-12-31T07:03:03.748Z,40.53
2018-12-31T07:05:33.126Z,40.17
2018-12-31T07:08:02.499Z,40.80
2018-12-31T07:10:32.217Z,41.33
2018-12-31T07:13:01.551Z,38.27
2018-12-31T07:15:30.977Z,33.20
2018-12-31T07:18:00.398Z,34.10
2018-12-31T07:20:29.746Z,35.63
2018-12-31T07:23:00.532Z,30.40
2018-12-31T07:25:30.180Z,33.70
2018-12-31T07:27:59.506Z,28.60
2018-12-31T07:30:28.923Z,28.87
2018-12-31T07:32:58.519Z,30.00
2018-12-31T07:35:27.970Z,29.17
2018-12-31T07:37:57.470Z,29.40
2018-12-31T07:40:27.752Z,32.03
2018-12-31T07:42:57.383Z,29.93
2018-12-31T07:45:27.018Z,29.43
2018-12-31T07:47:56.540Z,27.43
2018-12-31T07:50:26.098Z,27.43
2018-12-31T07:52:55.563Z,24.73
2018-12-31T07:55:24.990Z,21.83
2018-12-31T07:57:54.690Z,23.00
2018-12-31T08:00:26.456Z,22.60
2018-12-31T08:02:57.482Z,22.73
2018-12-31T08:05:27.797Z,22.50
2018-12-31T08:07:57.594Z,21.27
2018-12-31T08:10:27.396Z,22.67
2018-12-31T08:12:56.795Z,21.40
2018-12-31T08:15:26.182Z,19.67
2018-12-31T08:17:55.612Z,20.97
2018-12-31T08:20:24.944Z,23.50
2018-12-31T08:22:54.278Z,24.10
2018-12-31T08:25:23.915Z,24.43
2018-12-31T08:27:53.322Z,23.03
2018-12-31T08:30:23.739Z,21.47
2018-12-31T08:32:53.819Z,23.93
2018-12-31T08:35:23.189Z,23.67
2018-12-31T08:37:52.529Z,23.20
2018-12-31T08:40:22.178Z,23.47
2018-12-31T08:42:51.556Z,24.53
2018-12-31T08:45:20.947Z,23.87
2018-12-31T08:47:50.404Z,31.50
2018-12-31T08:50:19.775Z,27.57
2018-12-31T08:52:49.374Z,25.23
2018-12-31T08:55:18.882Z,24.13
2018-12-31T08:57:48.244Z,26.10
2018-12-31T09:00:17.696Z,27.43
2018-12-31T09:02:47.060Z,26.90
2018-12-31T09:05:16.402Z,27.80
2018-12-31T09:07:45.758Z,26.97
2018-12-31T09:10:15.077Z,28.73
2018-12-31T09:12:44.440Z,31.27
2018-12-31T09:15:14.738Z,31.67
2018-12-31T09:17:44.221Z,32.73
2018-12-31T09:20:13.658Z,32.50
2018-12-31T09:22:43.055Z,30.17
2018-12-31T09:25:12.390Z,33.00
2018-12-31T09:27:42.823Z,32.60
2018-12-31T09:30:14.599Z,32.30
2018-12-31T09:32:44.189Z,32.07
2018-12-31T09:35:13.699Z,30.07
2018-12-31T09:37:43.136Z,30.67
2018-12-31T09:40:12.790Z,32.97
2018-12-31T09:42:42.279Z,29.93
2018-12-31T09:45:11.727Z,30.30
2018-12-31T09:47:41.246Z,29.50
2018-12-31T09:50:11.810Z,29.33
2018-12-31T09:52:41.376Z,29.93
2018-12-31T09:55:11.248Z,29.80
2018-12-31T09:58:25.627Z,27.43
2018-12-31T10:00:53.231Z,27.90
2018-12-31T10:03:22.693Z,28.27
2018-12-31T10:05:52.133Z,26.57
2018-12-31T10:08:21.718Z,23.57
2018-12-31T10:10:51.143Z,26.30
2018-12-31T10:13:21.940Z,27.50
2018-12-31T10:15:51.665Z,22.53
2018-12-31T10:18:21.082Z,20.83
2018-12-31T10:20:50.472Z,21.83
2018-12-31T10:23:19.845Z,19.83
2018-12-31T10:25:49.420Z,18.43
2018-12-31T10:28:19.026Z,14.20
2018-12-31T10:30:48.399Z,12.40
2018-12-31T10:33:18.073Z,9.97
2018-12-31T10:35:50.705Z,8.47
2018-12-31T10:38:31.085Z,9.57
2018-12-31T10:41:05.277Z,11.63
2018-12-31T10:43:41.813Z,9.37
2018-12-31T10:46:18.555Z,11.53
2018-12-31T10:48:53.701Z,11.17
2018-12-31T10:51:31.150Z,11.03
2018-12-31T10:54:07.932Z,10.67
2018-12-31T10:56:44.428Z,10.77
2018-12-31T10:59:14.282Z,12.07
2018-12-31T11:01:45.190Z,12.43
2018-12-31T11:04:16.951Z,13.27
2018-12-31T11:06:47.062Z,12.10
2018-12-31T11:09:17.495Z,11.30
2018-12-31T11:11:47.512Z,13.27
2018-12-31T11:14:17.278Z,12.23
2018-12-31T11:16:47.551Z,12.67
2018-12-31T11:19:17.158Z,12.53
2018-12-31T11:21:47.196Z,12.87
2018-12-31T11:24:17.494Z,13.83
2018-12-31T11:26:46.970Z,13.73
2018-12-31T11:29:17.036Z,12.93
2018-12-31T11:31:47.509Z,12.17
2018-12-31T11:34:17.248Z,12.67
2018-12-31T11:36:47.735Z,13.33
2018-12-31T11:39:17.617Z,11.23
2018-12-31T11:41:48.207Z,13.90
2018-12-31T11:44:25.693Z,12.53
2018-12-31T11:46:56.041Z,13.67
2018-12-31T11:49:25.416Z,13.37
2018-12-31T11:51:54.804Z,14.60
2018-12-31T11:54:24.133Z,14.57
2018-12-31T11:56:53.501Z,13.97
2018-12-31T11:59:22.910Z,14.43
2018-12-31T12:01:52.218Z,13.33
2018-12-31T12:04:21.608Z,14.93
2018-12-31T12:06:50.949Z,15.90
2018-12-31T12:09:20.308Z,16.17
2018-12-31T12:11:49.700Z,16.03
2018-12-31T12:14:18.991Z,15.80
2018-12-31T12:16:49.322Z,15.60
2018-12-31T12:19:24.898Z,15.93
2018-12-31T12:21:55.970Z,16.87
2018-12-31T12:24:25.945Z,15.73
2018-12-31T12:26:55.685Z,16.30
2018-12-31T12:29:27.565Z,15.60
2018-12-31T12:31:57.113Z,15.27
2018-12-31T12:34:26.995Z,14.47
2018-12-31T12:36:56.514Z,15.00
2018-12-31T12:39:26.416Z,14.63
2018-12-31T12:41:55.812Z,14.70
2018-12-31T12:44:26.187Z,15.60
2018-12-31T12:46:56.844Z,16.10
2018-12-31T12:49:26.435Z,15.30
2018-12-31T12:51:56.027Z,14.87
2018-12-31T12:54:25.622Z,15.97
2018-12-31T12:56:55.293Z,16.87
2018-12-31T12:59:24.876Z,17.43
2018-12-31T13:01:54.324Z,15.80
2018-12-31T13:04:23.762Z,16.43
2018-12-31T13:06:53.225Z,12.73
2018-12-31T13:09:22.739Z,12.03
2018-12-31T13:11:56.628Z,11.97
2018-12-31T13:14:26.523Z,12.07
2018-12-31T13:16:56.121Z,12.30
2018-12-31T13:19:25.629Z,13.10
2018-12-31T13:21:55.867Z,11.97
2018-12-31T13:24:25.572Z,11.17
2018-12-31T13:26:54.927Z,13.07
2018-12-31T13:29:24.289Z,12.80
2018-12-31T13:31:53.654Z,15.63
2018-12-31T13:34:23.025Z,15.47
2018-12-31T13:36:52.429Z,14.27
2018-12-31T13:39:21.777Z,12.47
2018-12-31T13:41:51.119Z,12.20
2018-12-31T13:44:20.485Z,11.83
2018-12-31T13:46:49.833Z,11.83
2018-12-31T13:49:19.187Z,13.63
2018-12-31T13:51:48.570Z,12.50
2018-12-31T13:54:17.923Z,16.03
2018-12-31T13:56:47.305Z,13.30
2018-12-31T13:59:16.679Z,13.23
2018-12-31T14:01:46.318Z,15.10
2018-12-31T14:04:15.780Z,13.83
2018-12-31T14:06:45.135Z,16.30
2018-12-31T14:09:14.515Z,14.70
2018-12-31T14:11:43.950Z,20.93
2018-12-31T14:14:13.538Z,20.07
2018-12-31T14:16:42.927Z,24.17
2018-12-31T14:19:12.311Z,18.40
2018-12-31T14:21:42.921Z,17.10
2018-12-31T14:24:12.592Z,20.90
2018-12-31T14:26:42.313Z,17.10
2018-12-31T14:29:11.772Z,14.17
2018-12-31T14:31:41.224Z,14.67
2018-12-31T14:34:10.576Z,12.27
2018-12-31T14:36:40.187Z,12.70
2018-12-31T14:39:09.617Z,12.23
2018-12-31T14:41:38.990Z,11.77
2018-12-31T14:44:08.319Z,13.03
2018-12-31T14:46:37.748Z,13.57
2018-12-31T14:49:07.287Z,14.27
2018-12-31T14:51:36.643Z,14.00
2018-12-31T14:54:06.063Z,14.47
2018-12-31T14:56:35.426Z,15.10
2018-12-31T14:59:04.803Z,14.77
2018-12-31T15:01:34.659Z,14.60
2018-12-31T15:04:04.198Z,14.23
2018-12-31T15:06:33.594Z,15.13
2018-12-31T15:09:03.621Z,15.80
2018-12-31T15:11:33.014Z,16.27
2018-12-31T15:14:02.458Z,16.73
2018-12-31T15:16:31.823Z,16.03
2018-12-31T15:19:01.159Z,16.90
2018-12-31T15:21:30.492Z,17.60
2018-12-31T15:23:59.880Z,18.80
2018-12-31T15:26:29.256Z,18.23
2018-12-31T15:28:58.603Z,17.07
2018-12-31T15:31:27.954Z,18.70
2018-12-31T15:33:57.283Z,17.50
2018-12-31T15:36:26.682Z,16.80
2018-12-31T15:38:56.118Z,17.33
2018-12-31T15:41:25.591Z,18.87
2018-12-31T15:43:55.012Z,18.47
2018-12-31T15:46:24.316Z,26.07
2018-12-31T15:48:53.685Z,28.40
2018-12-31T15:51:23.113Z,38.50
2018-12-31T15:53:52.609Z,198.10
2018-12-31T15:56:22.421Z,29.47
2018-12-31T15:58:51.777Z,20.63
2018-12-31T16:01:21.355Z,47.63
2018-12-31T16:03:50.892Z,281.67
2018-12-31T16:06:20.393Z,32.30
2018-12-31T16:08:49.773Z,41.80
2018-12-31T16:11:19.844Z,17.43
2018-12-31T16:13:49.394Z,17.50
2018-12-31T16:16:19.684Z,18.20
2018-12-31T16:18:50.632Z,15.20
2018-12-31T16:21:21.197Z,14.33
2018-12-31T16:23:51.744Z,15.07
2018-12-31T16:26:23.108Z,17.17
2018-12-31T16:28:54.324Z,17.07
2018-12-31T16:31:24.254Z,18.00
2018-12-31T16:33:53.849Z,16.53
2018-12-31T16:36:23.824Z,16.90
2018-12-31T16:38:53.681Z,16.17
2018-12-31T16:41:25.472Z,17.00
2018-12-31T16:44:00.474Z,18.00
2018-12-31T16:46:31.473Z,21.07
2018-12-31T16:49:01.159Z,18.70
2018-12-31T16:51:30.425Z,19.13
2018-12-31T16:53:59.788Z,18.53
2018-12-31T16:56:29.103Z,185.40
2018-12-31T16:58:58.423Z,38.67
2018-12-31T17:01:27.759Z,20.50
2018-12-31T17:03:57.061Z,18.37
2018-12-31T17:06:26.422Z,19.03
2018-12-31T17:08:55.771Z,19.17
2018-12-31T17:11:25.119Z,22.47
2018-12-31T17:13:54.512Z,20.87
2018-12-31T17:16:23.840Z,40.57
2018-12-31T17:18:53.150Z,27.53
2018-12-31T17:21:22.496Z,25.73
2018-12-31T17:23:51.851Z,21.37
2018-12-31T17:26:21.155Z,21.73
2018-12-31T17:28:50.480Z,21.70
2018-12-31T17:31:19.941Z,22.90
2018-12-31T17:33:49.271Z,27.83
2018-12-31T17:36:18.638Z,23.43
2018-12-31T17:38:49.025Z,20.43
2018-12-31T17:41:18.452Z,20.87
2018-12-31T17:43:47.816Z,21.23
2018-12-31T17:46:17.205Z,20.40
2018-12-31T17:48:46.558Z,18.47
2018-12-31T17:51:15.890Z,20.37
2018-12-31T17:53:45.230Z,21.93
2018-12-31T17:56:14.508Z,22.23
2018-12-31T17:58:43.818Z,18.20
2018-12-31T18:01:13.103Z,22.93
2018-12-31T18:03:42.414Z,39.07
2018-12-31T18:06:11.727Z,53.07
2018-12-31T18:08:41.156Z,21.93
2018-12-31T18:11:10.514Z,23.43
2018-12-31T18:13:39.871Z,22.60
2018-12-31T18:16:09.301Z,23.67
2018-12-31T18:18:38.614Z,30.63
2018-12-31T18:21:07.980Z,28.23
2018-12-31T18:23:37.424Z,25.83
2018-12-31T18:26:06.759Z,24.60
2018-12-31T18:28:36.045Z,25.30
2018-12-31T18:31:05.369Z,24.30
2018-12-31T18:33:34.726Z,24.47
2018-12-31T18:36:04.275Z,23.10
2018-12-31T18:38:34.011Z,27.30
2018-12-31T18:41:03.331Z,24.53
2018-12-31T18:43:32.659Z,23.43
2018-12-31T18:46:02.090Z,23.97
2018-12-31T18:48:31.437Z,23.73
2018-12-31T18:51:01.176Z,22.03
2018-12-31T18:53:30.573Z,20.23
2018-12-31T18:55:59.871Z,22.93
2018-12-31T18:58:29.188Z,22.47
2018-12-31T19:00:58.526Z,21.73
2018-12-31T19:03:28.053Z,22.47
2018-12-31T19:05:57.444Z,24.53
2018-12-31T19:08:26.746Z,22.70
2018-12-31T19:10:56.085Z,23.90
2018-12-31T19:13:25.421Z,23.37
2018-12-31T19:15:55.172Z,25.27
2018-12-31T19:18:24.528Z,24.00
2018-12-31T19:20:53.829Z,27.87
2018-12-31T19:23:23.178Z,24.73
2018-12-31T19:25:52.519Z,27.10
2018-12-31T19:28:22.113Z,28.37
2018-12-31T19:30:51.508Z,26.97
2018-12-31T19:33:20.865Z,29.43
2018-12-31T19:35:50.191Z,26.87
2018-12-31T19:38:19.530Z,31.73
2018-12-31T19:40:49.154Z,31.93
2018-12-31T19:43:19.420Z,33.63
2018-12-31T19:45:48.791Z,32.63
2018-12-31T19:48:18.159Z,54.80
2018-12-31T19:50:47.456Z,38.10
2018-12-31T19:53:17.091Z,205.67
2018-12-31T19:55:46.414Z,32.97
2018-12-31T19:58:15.737Z,28.50
2018-12-31T20:00:45.109Z,27.83
2018-12-31T20:03:14.453Z,26.10
2018-12-31T20:05:44.221Z,29.53
2018-12-31T20:08:13.590Z,28.83
2018-12-31T20:10:42.938Z,27.30
2018-12-31T20:13:12.259Z,29.53
2018-12-31T20:15:48.401Z,41.30
2018-12-31T20:18:12.648Z,33.03
2018-12-31T20:20:41.944Z,29.93
2018-12-31T20:23:11.303Z,29.07
2018-12-31T20:25:40.621Z,30.37
2018-12-31T20:28:10.018Z,31.83
2018-12-31T20:30:39.632Z,30.37
2018-12-31T20:33:08.961Z,28.03
2018-12-31T20:35:38.309Z,30.30
2018-12-31T20:38:07.586Z,32.20
2018-12-31T20:40:36.945Z,29.97
2018-12-31T20:43:06.285Z,32.13
2018-12-31T20:45:35.612Z,100.23
2018-12-31T20:48:04.904Z,37.77
2018-12-31T20:50:34.265Z,31.83
2018-12-31T20:53:03.640Z,32.60
2018-12-31T20:55:32.964Z,33.33
2018-12-31T20:58:02.784Z,33.13
2018-12-31T21:00:32.135Z,35.73
2018-12-31T21:03:01.507Z,40.53
2018-12-31T21:05:30.831Z,43.17
2018-12-31T21:08:00.191Z,43.47
2018-12-31T21:10:29.985Z,48.63
2018-12-31T21:12:59.318Z,54.63
2018-12-31T21:15:28.746Z,56.10
2018-12-31T21:17:58.106Z,48.33
2018-12-31T21:20:27.499Z,46.50
2018-12-31T21:22:57.297Z,46.17
2018-12-31T21:25:26.636Z,58.37
2018-12-31T21:27:55.963Z,62.47
2018-12-31T21:30:25.342Z,80.13
2018-12-31T21:32:54.714Z,77.23
2018-12-31T21:35:24.464Z,76.10
2018-12-31T21:37:53.727Z,77.93
2018-12-31T21:40:23.032Z,80.97
2018-12-31T21:42:52.395Z,84.47
2018-12-31T21:45:21.736Z,81.50
2018-12-31T21:47:51.129Z,76.57
2018-12-31T21:50:20.468Z,74.87
2018-12-31T21:52:49.773Z,74.13
2018-12-31T21:55:19.150Z,70.93
2018-12-31T21:57:48.515Z,71.37
2018-12-31T22:00:17.888Z,71.23
2018-12-31T22:02:47.210Z,143.17
2018-12-31T22:05:16.622Z,97.30
2018-12-31T22:07:46.025Z,115.17
2018-12-31T22:10:15.391Z,165.87
2018-12-31T22:12:45.802Z,145.27
2018-12-31T22:15:15.770Z,95.00
2018-12-31T22:17:45.178Z,107.03
2018-12-31T22:20:14.945Z,125.90
2018-12-31T22:22:44.283Z,172.40
2018-12-31T22:25:13.639Z,209.03
2018-12-31T22:27:43.120Z,238.17
2018-12-31T22:30:12.487Z,168.83
2018-12-31T22:32:41.823Z,198.53
2018-12-31T22:35:11.167Z,124.73
2018-12-31T22:37:40.527Z,112.17
2018-12-31T22:40:09.812Z,134.03
2018-12-31T22:42:39.137Z,124.43
2018-12-31T22:45:08.632Z,124.13
2018-12-31T22:47:38.003Z,113.73
2018-12-31T22:50:09.627Z,99.93
2018-12-31T22:52:38.954Z,86.07
2018-12-31T22:55:08.315Z,87.87
2018-12-31T22:57:37.688Z,85.50
2018-12-31T23:00:09.948Z,74.57
2018-12-31T23:02:39.649Z,77.83
2018-12-31T23:05:11.020Z,71.97
2018-12-31T23:07:40.379Z,72.47
2018-12-31T23:10:10.445Z,69.00
2018-12-31T23:12:39.779Z,62.17
2018-12-31T23:15:13.118Z,68.90
2018-12-31T23:17:42.458Z,110.10
2018-12-31T23:20:12.562Z,95.37
2018-12-31T23:22:41.900Z,66.17
2018-12-31T23:25:11.231Z,61.73
2018-12-31T23:27:40.543Z,58.73
2018-12-31T23:30:10.393Z,222.47
2018-12-31T23:32:39.817Z,296.43
2018-12-31T23:35:09.598Z,164.27
2018-12-31T23:37:41.314Z,80.17
2018-12-31T23:40:10.849Z,77.57
2018-12-31T23:42:40.219Z,67.10
2018-12-31T23:45:10.767Z,68.00
2018-12-31T23:47:40.097Z,54.17
2018-12-31T23:50:10.586Z,59.50
2018-12-31T23:52:39.921Z,57.13
2018-12-31T23:55:09.637Z,59.03
2018-12-31T23:57:39.008Z,66.93
